Time;durP1;ratioP1;P1;durP2;ratioP2;P2;SDS_P1;SDS_P2;PMS_P1;PMS_P2;Temp;Humidity;BMP_temperature;BMP_pressure;BME280_temperature;BME280_humidity;BME280_pressure;Samples;Min_cycle;Max_cycle;Signal;HPM_P1;HPM_P2
2022/03/05 00:02:06;;;;;;;16.83;10.52;;;;;;;;;;5053127;28;20037;-66
2022/03/05 00:04:32;;;;;;;18.25;12.10;;;;;;;;;;5053115;28;20052;-66
2022/03/05 00:06:58;;;;;;;18.83;12.25;;;;;;;;;;5053479;28;20099;-67
2022/03/05 00:09:24;;;;;;;18.40;12.38;;;;;;;;;;5053416;28;20057;-67
2022/03/05 00:11:50;;;;;;;19.98;13.10;;;;;;;;;;5053178;28;20036;-67
2022/03/05 00:14:16;;;;;;;20.05;12.77;;;;;;;;;;5052911;28;20029;-66
2022/03/05 00:16:42;;;;;;;18.85;11.95;;;;;;;;;;5052905;28;20024;-66
2022/03/05 00:19:09;;;;;;;19.23;12.43;;;;;;;;;;5051841;28;20021;-66
2022/03/05 00:21:35;;;;;;;18.75;12.15;;;;;;;;;;5052755;28;20681;-67
2022/03/05 00:24:01;;;;;;;17.92;11.25;;;;;;;;;;5053125;28;20086;-67
2022/03/05 00:26:27;;;;;;;20.15;12.30;;;;;;;;;;5053043;28;20098;-66
2022/03/05 00:28:53;;;;;;;22.67;12.60;;;;;;;;;;5050853;28;20036;-66
2022/03/05 00:31:19;;;;;;;19.40;12.68;;;;;;;;;;5052749;28;20545;-66
2022/03/05 00:33:45;;;;;;;18.23;12.48;;;;;;;;;;5053150;28;20575;-67
2022/03/05 00:36:11;;;;;;;19.92;12.90;;;;;;;;;;5052331;28;20507;-66
2022/03/05 00:38:38;;;;;;;18.00;12.35;;;;;;;;;;5051806;28;20071;-66
2022/03/05 00:41:04;;;;;;;18.40;12.48;;;;;;;;;;5052564;28;20028;-67
2022/03/05 00:43:30;;;;;;;19.23;11.82;;;;;;;;;;5051399;28;20045;-66
2022/03/05 00:45:56;;;;;;;20.90;13.07;;;;;;;;;;5052211;28;20036;-67
2022/03/05 00:48:22;;;;;;;17.77;12.75;;;;;;;;;;5052299;28;20021;-67
2022/03/05 00:50:49;;;;;;;18.20;12.13;;;;;;;;;;5051048;28;20113;-66
2022/03/05 00:53:17;;;;;;;23.40;13.50;;;;;;;;;;5052821;28;20128;-66
2022/03/05 00:55:43;;;;;;;20.92;13.88;;;;;;;;;;5052486;28;20017;-66
2022/03/05 00:58:09;;;;;;;17.38;11.73;;;;;;;;;;5052369;28;20533;-67
2022/03/05 01:00:35;;;;;;;16.98;11.60;;;;;;;;;;5051340;28;20024;-66
2022/03/05 01:03:02;;;;;;;18.70;12.15;;;;;;;;;;5052533;28;20048;-66
2022/03/05 01:05:28;;;;;;;18.98;12.05;;;;;;;;;;5045103;28;20037;-66
2022/03/05 01:07:54;;;;;;;16.38;10.95;;;;;;;;;;5040361;28;20025;-66
2022/03/05 01:10:20;;;;;;;19.23;11.63;;;;;;;;;;5051436;28;20035;-66
2022/03/05 01:12:46;;;;;;;26.33;11.77;;;;;;;;;;5050406;28;20044;-66
2022/03/05 01:15:12;;;;;;;20.90;12.60;;;;;;;;;;5051614;28;20087;-67
2022/03/05 01:17:38;;;;;;;15.73;10.85;;;;;;;;;;5052504;28;20239;-67
2022/03/05 01:20:05;;;;;;;17.30;10.65;;;;;;;;;;5053121;28;20048;-66
2022/03/05 01:22:31;;;;;;;17.38;11.85;;;;;;;;;;5052134;28;20079;-67
2022/03/05 01:24:57;;;;;;;18.42;11.73;;;;;;;;;;5052048;28;20083;-66
2022/03/05 01:27:23;;;;;;;18.05;11.93;;;;;;;;;;5051889;28;20056;-66
2022/03/05 01:29:50;;;;;;;20.30;11.70;;;;;;;;;;5040968;28;20022;-68
2022/03/05 01:32:16;;;;;;;16.35;11.32;;;;;;;;;;5050833;28;20479;-63
2022/03/05 01:34:42;;;;;;;16.67;11.35;;;;;;;;;;5051565;28;20029;-68
2022/03/05 01:37:08;;;;;;;17.63;11.43;;;;;;;;;;5051786;28;20044;-66
2022/03/05 01:39:35;;;;;;;16.85;12.40;;;;;;;;;;5052768;28;20029;-68
2022/03/05 01:42:01;;;;;;;17.33;10.10;;;;;;;;;;5056506;28;20049;-71
2022/03/05 01:44:27;;;;;;;17.55;11.23;;;;;;;;;;5055418;28;20384;-69
2022/03/05 01:46:53;;;;;;;19.88;12.15;;;;;;;;;;5056013;28;20028;-66
2022/03/05 01:49:20;;;;;;;18.20;11.55;;;;;;;;;;5056186;28;20031;-70
2022/03/05 01:51:46;;;;;;;19.77;10.90;;;;;;;;;;5055976;28;20067;-67
2022/03/05 01:54:13;;;;;;;15.45;10.27;;;;;;;;;;5055564;28;20025;-70
2022/03/05 01:56:39;;;;;;;18.73;10.00;;;;;;;;;;5054744;28;20102;-66
2022/03/05 01:59:06;;;;;;;16.77;11.05;;;;;;;;;;5054237;28;20028;-64
2022/03/05 02:01:32;;;;;;;22.42;11.50;;;;;;;;;;5054361;28;20021;-65
2022/03/05 02:03:59;;;;;;;17.02;10.25;;;;;;;;;;5052934;28;20033;-66
2022/03/05 02:06:26;;;;;;;17.02;11.23;;;;;;;;;;5055532;28;20037;-63
2022/03/05 02:08:52;;;;;;;16.38;11.00;;;;;;;;;;5054291;28;20021;-64
2022/03/05 02:11:18;;;;;;;14.35;9.60;;;;;;;;;;5055534;28;20025;-63
2022/03/05 02:13:44;;;;;;;13.10;8.90;;;;;;;;;;5054620;28;20104;-70
2022/03/05 02:16:10;;;;;;;15.82;10.70;;;;;;;;;;5055458;28;20036;-64
2022/03/05 02:18:37;;;;;;;15.50;9.77;;;;;;;;;;5055547;28;20437;-65
2022/03/05 02:21:03;;;;;;;16.70;10.95;;;;;;;;;;5055623;28;20080;-64
2022/03/05 02:23:29;;;;;;;16.33;9.93;;;;;;;;;;5054569;28;20476;-64
2022/03/05 02:25:56;;;;;;;13.98;9.27;;;;;;;;;;5055164;28;20107;-63
2022/03/05 02:28:22;;;;;;;14.43;9.63;;;;;;;;;;5055394;28;20017;-68
2022/03/05 02:30:49;;;;;;;12.75;8.73;;;;;;;;;;5054972;28;20060;-66
2022/03/05 02:33:15;;;;;;;19.25;9.32;;;;;;;;;;5054881;28;20024;-65
2022/03/05 02:35:44;;;;;;;13.95;9.38;;;;;;;;;;5046206;28;20064;-64
2022/03/05 02:38:14;;;;;;;15.07;8.88;;;;;;;;;;5053333;28;20048;-67
2022/03/05 02:40:41;;;;;;;12.50;8.70;;;;;;;;;;5055346;28;20025;-65
2022/03/05 02:43:08;;;;;;;13.32;9.20;;;;;;;;;;5055035;28;20071;-64
2022/03/05 02:45:34;;;;;;;16.25;8.73;;;;;;;;;;5054661;28;20035;-65
2022/03/05 02:48:03;;;;;;;14.15;9.20;;;;;;;;;;5055032;28;20021;-67
2022/03/05 02:50:29;;;;;;;13.80;9.20;;;;;;;;;;5054561;28;20024;-63
2022/03/05 02:52:55;;;;;;;14.40;8.60;;;;;;;;;;5052898;28;20028;-65
2022/03/05 02:55:21;;;;;;;14.57;8.57;;;;;;;;;;5054672;28;20090;-64
2022/03/05 02:57:47;;;;;;;13.95;8.90;;;;;;;;;;5055106;28;20537;-63
2022/03/05 03:00:15;;;;;;;11.52;8.30;;;;;;;;;;5054848;28;20476;-64
2022/03/05 03:02:41;;;;;;;14.15;8.13;;;;;;;;;;5053568;28;20067;-65
2022/03/05 03:05:07;;;;;;;12.77;8.70;;;;;;;;;;5054397;28;20057;-64
2022/03/05 03:07:33;;;;;;;13.73;8.95;;;;;;;;;;5069626;28;20032;-65
2022/03/05 03:10:00;;;;;;;13.68;8.60;;;;;;;;;;5054848;28;20029;-69
2022/03/05 03:12:27;;;;;;;12.10;7.65;;;;;;;;;;5054501;28;20540;-72
2022/03/05 03:14:53;;;;;;;11.90;8.23;;;;;;;;;;5054255;28;20047;-65
2022/03/05 03:17:19;;;;;;;11.95;7.50;;;;;;;;;;5052898;28;20025;-65
2022/03/05 03:19:45;;;;;;;11.57;8.07;;;;;;;;;;5053353;28;20376;-64
2022/03/05 03:22:11;;;;;;;12.55;7.13;;;;;;;;;;5054666;28;20025;-67
2022/03/05 03:24:37;;;;;;;12.30;7.40;;;;;;;;;;5052752;28;20497;-69
2022/03/05 03:27:03;;;;;;;12.93;8.60;;;;;;;;;;5054129;28;20147;-64
2022/03/05 03:29:30;;;;;;;15.82;8.75;;;;;;;;;;5054189;28;20029;-66
2022/03/05 03:31:56;;;;;;;11.95;7.68;;;;;;;;;;5053927;28;20047;-63
2022/03/05 03:34:22;;;;;;;14.80;7.70;;;;;;;;;;5054478;28;20028;-64
2022/03/05 03:36:48;;;;;;;13.68;8.27;;;;;;;;;;5054107;28;20098;-66
2022/03/05 03:39:14;;;;;;;14.02;7.97;;;;;;;;;;5054019;28;20115;-64
2022/03/05 03:41:40;;;;;;;11.48;7.75;;;;;;;;;;5054298;28;20074;-67
2022/03/05 03:44:06;;;;;;;11.75;7.32;;;;;;;;;;5053966;28;20033;-66
2022/03/05 03:46:32;;;;;;;11.50;8.05;;;;;;;;;;5053577;28;20472;-68
2022/03/05 03:48:58;;;;;;;12.70;7.35;;;;;;;;;;5053736;28;20056;-65
2022/03/05 03:51:24;;;;;;;12.20;8.48;;;;;;;;;;5053843;28;20036;-65
2022/03/05 03:53:50;;;;;;;11.73;7.68;;;;;;;;;;5053807;28;20025;-65
2022/03/05 03:56:16;;;;;;;11.48;7.55;;;;;;;;;;5053481;28;20028;-65
2022/03/05 03:58:42;;;;;;;12.23;7.68;;;;;;;;;;5053329;28;20108;-71
2022/03/05 04:01:08;;;;;;;13.70;7.82;;;;;;;;;;5053571;28;20052;-66
2022/03/05 04:03:35;;;;;;;10.85;7.35;;;;;;;;;;5053168;28;20024;-65
2022/03/05 04:06:01;;;;;;;11.80;7.35;;;;;;;;;;5053789;28;20164;-65
2022/03/05 04:08:42;;;;;;;10.40;7.28;;;;;;;;;;5053584;28;20028;-69
2022/03/05 04:11:12;;;;;;;11.63;7.25;;;;;;;;;;5052578;28;20117;-65
2022/03/05 04:13:38;;;;;;;11.30;7.95;;;;;;;;;;5053551;28;20021;-63
2022/03/05 04:16:05;;;;;;;12.80;8.65;;;;;;;;;;5052894;28;20108;-63
2022/03/05 04:18:31;;;;;;;10.82;7.40;;;;;;;;;;5052113;28;20025;-67
2022/03/05 04:20:58;;;;;;;11.13;7.47;;;;;;;;;;5052874;28;20031;-64
2022/03/05 04:23:24;;;;;;;13.32;8.45;;;;;;;;;;5051920;28;20384;-63
2022/03/05 04:25:50;;;;;;;11.85;7.40;;;;;;;;;;5052031;28;20033;-65
2022/03/05 04:28:16;;;;;;;11.00;7.28;;;;;;;;;;5053013;28;20515;-64
2022/03/05 04:30:43;;;;;;;10.80;7.18;;;;;;;;;;5052813;28;20472;-66
2022/03/05 04:33:10;;;;;;;11.45;7.43;;;;;;;;;;5053037;28;20021;-66
2022/03/05 04:35:36;;;;;;;12.25;7.57;;;;;;;;;;5047281;28;20026;-69
2022/03/05 04:38:02;;;;;;;12.52;7.85;;;;;;;;;;5043460;28;20045;-68
2022/03/05 04:40:28;;;;;;;10.68;7.00;;;;;;;;;;5052860;28;20032;-70
2022/03/05 04:42:54;;;;;;;10.98;7.05;;;;;;;;;;5052904;28;20048;-69
2022/03/05 04:45:20;;;;;;;11.30;7.20;;;;;;;;;;5052509;28;20488;-66
2022/03/05 04:47:46;;;;;;;10.82;7.35;;;;;;;;;;5051590;28;20456;-68
2022/03/05 04:50:12;;;;;;;14.18;7.85;;;;;;;;;;5051608;28;20083;-69
2022/03/05 04:52:39;;;;;;;11.40;7.10;;;;;;;;;;5052675;28;20396;-67
2022/03/05 04:55:06;;;;;;;13.40;6.90;;;;;;;;;;5051381;28;20078;-69
2022/03/05 04:57:32;;;;;;;8.98;6.22;;;;;;;;;;5051579;28;20033;-66
2022/03/05 04:59:58;;;;;;;10.65;6.70;;;;;;;;;;5052732;28;20498;-67
2022/03/05 05:02:24;;;;;;;12.48;7.43;;;;;;;;;;5051001;28;20029;-66
2022/03/05 05:04:51;;;;;;;11.80;7.05;;;;;;;;;;5052677;28;20021;-67
2022/03/05 05:07:17;;;;;;;10.93;6.22;;;;;;;;;;5052460;28;20073;-64
2022/03/05 05:09:43;;;;;;;10.57;6.80;;;;;;;;;;5050999;28;20029;-69
2022/03/05 05:12:10;;;;;;;10.10;6.22;;;;;;;;;;5052963;28;20025;-71
2022/03/05 05:14:36;;;;;;;9.07;6.07;;;;;;;;;;5052883;28;20028;-68
2022/03/05 05:17:03;;;;;;;9.80;6.70;;;;;;;;;;5056956;28;20075;-65
2022/03/05 05:19:29;;;;;;;11.57;7.30;;;;;;;;;;5056736;28;20021;-65
2022/03/05 05:21:59;;;;;;;8.93;6.22;;;;;;;;;;5056912;28;20551;-66
2022/03/05 05:24:26;;;;;;;11.15;6.35;;;;;;;;;;5056413;28;20029;-67
2022/03/05 05:26:53;;;;;;;9.82;5.90;;;;;;;;;;5056474;28;20037;-68
2022/03/05 05:29:19;;;;;;;10.20;6.03;;;;;;;;;;5056590;28;20365;-67
2022/03/05 05:31:45;;;;;;;9.70;6.22;;;;;;;;;;5056701;28;20040;-68
2022/03/05 05:34:11;;;;;;;10.90;6.30;;;;;;;;;;5054700;28;20027;-66
2022/03/05 05:36:38;;;;;;;10.15;5.93;;;;;;;;;;5039638;28;20072;-65
2022/03/05 05:39:06;;;;;;;10.20;6.20;;;;;;;;;;5037340;28;20468;-67
2022/03/05 05:41:32;;;;;;;10.00;6.30;;;;;;;;;;5056352;28;20021;-66
2022/03/05 05:43:58;;;;;;;10.77;6.25;;;;;;;;;;5056373;28;20052;-66
2022/03/05 05:46:24;;;;;;;10.30;6.90;;;;;;;;;;5055850;28;20037;-66
2022/03/05 05:48:50;;;;;;;8.52;5.10;;;;;;;;;;5056465;28;20063;-69
2022/03/05 05:51:16;;;;;;;10.18;6.40;;;;;;;;;;5056128;28;20086;-72
2022/03/05 05:53:42;;;;;;;10.15;6.70;;;;;;;;;;5056581;28;20357;-69
2022/03/05 05:56:09;;;;;;;10.98;6.15;;;;;;;;;;5055739;28;20029;-68
2022/03/05 05:58:35;;;;;;;11.50;5.97;;;;;;;;;;5056070;28;20106;-64
2022/03/05 06:01:01;;;;;;;10.00;5.78;;;;;;;;;;5055812;28;20033;-66
2022/03/05 06:03:27;;;;;;;11.43;6.68;;;;;;;;;;5056039;28;20020;-65
2022/03/05 06:05:53;;;;;;;10.23;6.10;;;;;;;;;;5055684;28;20055;-68
2022/03/05 06:08:20;;;;;;;9.88;6.07;;;;;;;;;;5056035;28;20056;-67
2022/03/05 06:10:46;;;;;;;11.02;6.90;;;;;;;;;;5055532;28;20024;-64
2022/03/05 06:13:12;;;;;;;8.80;5.47;;;;;;;;;;5055803;28;20476;-68
2022/03/05 06:15:38;;;;;;;11.07;6.25;;;;;;;;;;5055587;28;20029;-64
2022/03/05 06:18:04;;;;;;;11.85;6.38;;;;;;;;;;5055393;28;20104;-64
2022/03/05 06:20:30;;;;;;;11.40;6.25;;;;;;;;;;5055436;28;20029;-73
2022/03/05 06:22:56;;;;;;;9.68;6.07;;;;;;;;;;5055517;28;20531;-68
2022/03/05 06:25:22;;;;;;;10.80;6.85;;;;;;;;;;5055143;28;20037;-67
2022/03/05 06:27:48;;;;;;;9.57;5.93;;;;;;;;;;5054738;28;20021;-65
2022/03/05 06:30:14;;;;;;;9.23;5.88;;;;;;;;;;5055533;28;20090;-66
2022/03/05 06:32:41;;;;;;;9.95;5.10;;;;;;;;;;5055409;28;20033;-67
2022/03/05 06:35:07;;;;;;;10.02;6.22;;;;;;;;;;5055399;28;20021;-74
2022/03/05 06:37:34;;;;;;;9.50;6.35;;;;;;;;;;5055071;28;20053;-66
2022/03/05 06:40:01;;;;;;;9.30;5.68;;;;;;;;;;5055059;28;20108;-65
2022/03/05 06:42:27;;;;;;;9.13;5.80;;;;;;;;;;5053757;28;20110;-64
2022/03/05 06:44:53;;;;;;;12.32;5.80;;;;;;;;;;5054821;28;20021;-64
2022/03/05 06:47:19;;;;;;;8.70;5.40;;;;;;;;;;5054713;28;20032;-65
2022/03/05 06:49:45;;;;;;;9.98;6.30;;;;;;;;;;5054870;28;20024;-64
2022/03/05 06:52:12;;;;;;;8.38;5.57;;;;;;;;;;5055057;28;20021;-64
2022/03/05 06:54:38;;;;;;;14.20;7.05;;;;;;;;;;5054633;28;20025;-67
2022/03/05 06:57:04;;;;;;;10.60;6.00;;;;;;;;;;5052663;28;20431;-64
2022/03/05 06:59:30;;;;;;;13.65;6.75;;;;;;;;;;5052856;28;20052;-67
2022/03/05 07:01:56;;;;;;;11.57;6.35;;;;;;;;;;5053399;28;20025;-64
2022/03/05 07:04:22;;;;;;;10.00;5.68;;;;;;;;;;5052436;28;20498;-65
2022/03/05 07:06:48;;;;;;;10.43;5.80;;;;;;;;;;5054654;28;20032;-64
2022/03/05 07:09:14;;;;;;;9.38;5.93;;;;;;;;;;5054578;28;20021;-67
2022/03/05 07:11:41;;;;;;;9.05;5.50;;;;;;;;;;5054838;28;20037;-64
2022/03/05 07:14:07;;;;;;;10.20;6.20;;;;;;;;;;5054482;28;20024;-66
2022/03/05 07:16:33;;;;;;;9.88;6.03;;;;;;;;;;5054559;28;20021;-66
2022/03/05 07:18:59;;;;;;;8.30;5.28;;;;;;;;;;5054580;28;20025;-69
2022/03/05 07:21:25;;;;;;;9.60;5.68;;;;;;;;;;5054762;28;20025;-65
2022/03/05 07:23:51;;;;;;;9.40;5.60;;;;;;;;;;5053187;28;20024;-66
2022/03/05 07:26:18;;;;;;;9.02;5.55;;;;;;;;;;5053717;28;20936;-66
2022/03/05 07:28:47;;;;;;;7.88;5.30;;;;;;;;;;5052507;28;20471;-66
2022/03/05 07:31:13;;;;;;;9.63;5.82;;;;;;;;;;5053061;28;20036;-66
2022/03/05 07:33:39;;;;;;;12.30;5.82;;;;;;;;;;5053821;28;20045;-65
2022/03/05 07:36:06;;;;;;;10.23;5.70;;;;;;;;;;5053714;28;20029;-68
2022/03/05 07:38:32;;;;;;;9.30;5.28;;;;;;;;;;5053447;28;20383;-68
2022/03/05 07:40:58;;;;;;;11.35;5.70;;;;;;;;;;5053968;28;20060;-62
2022/03/05 07:43:25;;;;;;;9.82;5.35;;;;;;;;;;5054016;28;20388;-63
2022/03/05 07:45:51;;;;;;;9.95;5.45;;;;;;;;;;5052832;28;20087;-64
2022/03/05 07:48:19;;;;;;;9.48;5.00;;;;;;;;;;5053906;28;20032;-64
2022/03/05 07:50:46;;;;;;;8.63;5.50;;;;;;;;;;5053658;28;20025;-65
2022/03/05 07:53:12;;;;;;;8.38;5.05;;;;;;;;;;5053670;28;20028;-65
2022/03/05 07:55:38;;;;;;;8.38;4.97;;;;;;;;;;5053650;28;20025;-64
2022/03/05 07:58:04;;;;;;;8.45;4.95;;;;;;;;;;5053304;28;20120;-63
2022/03/05 08:00:30;;;;;;;8.80;4.75;;;;;;;;;;5053696;28;20025;-65
2022/03/05 08:02:56;;;;;;;12.25;4.85;;;;;;;;;;5053428;28;20488;-64
2022/03/05 08:05:22;;;;;;;9.25;5.10;;;;;;;;;;5053233;28;20388;-64
2022/03/05 08:07:48;;;;;;;8.15;4.68;;;;;;;;;;5052996;28;20033;-64
2022/03/05 08:10:15;;;;;;;12.82;6.13;;;;;;;;;;5041434;28;20504;-67
2022/03/05 08:12:41;;;;;;;9.80;6.45;;;;;;;;;;5058500;28;20164;-69
2022/03/05 08:15:07;;;;;;;9.95;5.75;;;;;;;;;;5038482;28;20021;-64
2022/03/05 08:17:34;;;;;;;13.35;5.65;;;;;;;;;;5053023;28;20021;-65
2022/03/05 08:20:00;;;;;;;12.45;6.03;;;;;;;;;;5053273;28;20376;-67
2022/03/05 08:22:26;;;;;;;9.00;5.60;;;;;;;;;;5052080;28;20009;-67
2022/03/05 08:24:52;;;;;;;16.77;5.43;;;;;;;;;;5052886;28;20036;-69
2022/03/05 08:27:18;;;;;;;9.55;5.25;;;;;;;;;;5053032;28;20090;-66
2022/03/05 08:29:44;;;;;;;9.35;5.43;;;;;;;;;;5052464;28;20028;-64
2022/03/05 08:32:11;;;;;;;12.32;6.13;;;;;;;;;;5053172;28;20083;-62
2022/03/05 08:34:37;;;;;;;7.65;4.75;;;;;;;;;;5053019;28;20025;-63
2022/03/05 08:37:03;;;;;;;8.52;4.55;;;;;;;;;;5051568;28;20488;-66
2022/03/05 08:39:29;;;;;;;8.85;5.35;;;;;;;;;;5052411;28;20111;-65
2022/03/05 08:41:56;;;;;;;8.60;5.05;;;;;;;;;;5052600;28;20017;-65
2022/03/05 08:44:22;;;;;;;10.23;5.88;;;;;;;;;;5052879;28;20096;-67
2022/03/05 08:46:48;;;;;;;9.90;5.43;;;;;;;;;;5052540;28;20040;-63
2022/03/05 08:49:15;;;;;;;9.55;5.38;;;;;;;;;;5051827;28;20389;-67
2022/03/05 08:51:41;;;;;;;7.65;4.75;;;;;;;;;;5052058;28;20499;-67
2022/03/05 08:54:07;;;;;;;8.30;5.20;;;;;;;;;;5050912;28;20036;-63
2022/03/05 08:56:33;;;;;;;10.68;5.85;;;;;;;;;;5050188;28;20021;-65
2022/03/05 08:58:59;;;;;;;14.57;5.95;;;;;;;;;;5050891;28;20029;-63
2022/03/05 09:01:25;;;;;;;8.50;5.13;;;;;;;;;;5040081;28;20025;-69
2022/03/05 09:03:52;;;;;;;12.27;5.40;;;;;;;;;;5051710;28;20025;-69
2022/03/05 09:06:18;;;;;;;13.38;5.43;;;;;;;;;;5048253;28;20059;-63
2022/03/05 09:08:44;;;;;;;11.02;5.35;;;;;;;;;;5051213;28;20017;-68
2022/03/05 09:11:10;;;;;;;9.35;4.53;;;;;;;;;;5050720;28;20472;-66
2022/03/05 09:13:36;;;;;;;8.88;4.75;;;;;;;;;;5051423;28;20029;-65
2022/03/05 09:16:02;;;;;;;8.80;4.82;;;;;;;;;;5052699;28;20025;-73
2022/03/05 09:18:28;;;;;;;10.35;5.15;;;;;;;;;;5052437;28;20024;-63
2022/03/05 09:20:54;;;;;;;9.68;4.78;;;;;;;;;;5051530;28;20476;-65
2022/03/05 09:23:21;;;;;;;8.32;4.65;;;;;;;;;;5052664;28;20057;-64
2022/03/05 09:25:47;;;;;;;12.75;5.40;;;;;;;;;;5052486;28;20392;-70
2022/03/05 09:28:13;;;;;;;11.05;4.60;;;;;;;;;;5051373;28;20095;-68
2022/03/05 09:30:39;;;;;;;8.48;4.50;;;;;;;;;;5043432;28;20025;-64
2022/03/05 09:33:07;;;;;;;10.00;4.97;;;;;;;;;;5052007;28;20479;-68
2022/03/05 09:35:33;;;;;;;7.47;4.40;;;;;;;;;;5043030;28;20017;-64
2022/03/05 09:37:59;;;;;;;11.02;4.97;;;;;;;;;;5051522;28;20060;-64
2022/03/05 09:40:25;;;;;;;9.02;4.72;;;;;;;;;;5035928;28;20025;-64
2022/03/05 09:42:51;;;;;;;9.13;4.45;;;;;;;;;;5051800;28;20075;-64
2022/03/05 09:45:18;;;;;;;8.18;5.13;;;;;;;;;;5045180;28;20061;-64
2022/03/05 09:47:44;;;;;;;8.23;3.92;;;;;;;;;;5040820;28;20056;-71
2022/03/05 09:50:11;;;;;;;9.68;4.90;;;;;;;;;;5050771;28;20709;-64
2022/03/05 09:52:37;;;;;;;10.13;4.13;;;;;;;;;;5050290;28;20026;-66
2022/03/05 09:55:04;;;;;;;8.52;4.32;;;;;;;;;;5051221;28;20017;-65
2022/03/05 09:57:30;;;;;;;12.05;5.07;;;;;;;;;;5046371;28;20120;-64
2022/03/05 09:59:56;;;;;;;9.27;4.53;;;;;;;;;;5037493;28;20052;-67
2022/03/05 10:02:23;;;;;;;11.52;4.80;;;;;;;;;;5048527;28;20017;-65
2022/03/05 10:04:49;;;;;;;8.25;4.38;;;;;;;;;;5055625;28;20033;-70
2022/03/05 10:07:17;;;;;;;31.88;5.40;;;;;;;;;;5054083;28;20500;-73
2022/03/05 10:09:44;;;;;;;14.82;5.43;;;;;;;;;;5055067;28;20091;-69
2022/03/05 10:12:36;;;;;;;14.85;4.70;;;;;;;;;;5054841;28;20025;-64
2022/03/05 10:15:12;;;;;;;11.65;4.68;;;;;;;;;;5053073;28;20082;-65
2022/03/05 10:17:52;;;;;;;11.35;4.28;;;;;;;;;;5053060;28;20096;-71
2022/03/05 10:20:19;;;;;;;12.20;4.47;;;;;;;;;;5066095;28;20537;-69
2022/03/05 10:22:55;;;;;;;10.98;4.53;;;;;;;;;;5052967;28;20024;-65
2022/03/05 10:25:31;;;;;;;10.73;4.93;;;;;;;;;;5062014;28;20037;-69
2022/03/05 10:28:02;;;;;;;9.82;4.45;;;;;;;;;;5041906;28;20116;-67
2022/03/05 10:30:29;;;;;;;8.50;4.13;;;;;;;;;;5051212;28;20049;-65
2022/03/05 10:32:55;;;;;;;10.00;4.78;;;;;;;;;;5039056;28;20094;-69
2022/03/05 10:35:21;;;;;;;7.20;4.30;;;;;;;;;;5049496;28;20025;-70
2022/03/05 10:37:51;;;;;;;10.40;4.38;;;;;;;;;;5049765;28;20084;-68
2022/03/05 10:40:25;;;;;;;7.28;3.88;;;;;;;;;;5049477;28;20128;-71
2022/03/05 10:42:51;;;;;;;8.75;3.53;;;;;;;;;;5048619;28;20100;-71
2022/03/05 10:45:18;;;;;;;9.20;4.32;;;;;;;;;;5043425;28;20037;-66
2022/03/05 10:47:49;;;;;;;12.20;4.72;;;;;;;;;;5035690;28;20426;-68
2022/03/05 10:50:15;;;;;;;16.35;5.53;;;;;;;;;;5034882;28;20026;-65
2022/03/05 10:52:49;;;;;;;14.45;4.88;;;;;;;;;;5048976;28;20130;-64
2022/03/05 10:55:23;;;;;;;15.55;5.10;;;;;;;;;;5053182;28;20495;-65
2022/03/05 10:58:25;;;;;;;9.43;4.35;;;;;;;;;;5054379;28;20527;-66
2022/03/05 11:00:53;;;;;;;13.35;5.28;;;;;;;;;;5030771;28;20032;-66
2022/03/05 11:03:19;;;;;;;10.20;5.28;;;;;;;;;;5045570;28;20086;-64
2022/03/05 11:05:45;;;;;;;11.65;4.82;;;;;;;;;;5054359;28;20059;-64
2022/03/05 11:08:11;;;;;;;9.98;4.88;;;;;;;;;;5054502;28;20472;-65
2022/03/05 11:10:38;;;;;;;8.10;4.40;;;;;;;;;;5054452;28;20100;-64
2022/03/05 11:13:05;;;;;;;9.20;3.97;;;;;;;;;;5051596;28;20079;-67
2022/03/05 11:15:32;;;;;;;7.70;4.18;;;;;;;;;;5054056;28;20024;-70
2022/03/05 11:17:58;;;;;;;8.07;3.92;;;;;;;;;;5054261;28;20013;-67
2022/03/05 11:20:25;;;;;;;9.02;4.03;;;;;;;;;;5053990;28;20082;-65
2022/03/05 11:22:51;;;;;;;11.98;4.97;;;;;;;;;;5054525;28;20404;-67
2022/03/05 11:25:21;;;;;;;10.30;4.65;;;;;;;;;;5054540;28;20071;-66
2022/03/05 11:27:58;;;;;;;7.95;4.13;;;;;;;;;;5054440;28;20090;-67
2022/03/05 11:30:24;;;;;;;8.05;3.90;;;;;;;;;;5054474;28;20051;-65
2022/03/05 11:32:50;;;;;;;8.15;4.45;;;;;;;;;;5054331;28;20032;-68
2022/03/05 11:35:21;;;;;;;10.23;4.70;;;;;;;;;;5041189;28;20022;-66
2022/03/05 11:37:47;;;;;;;8.80;3.85;;;;;;;;;;5043541;28;20041;-67
2022/03/05 11:40:43;;;;;;;10.38;4.43;;;;;;;;;;5046016;28;20812;-65
2022/03/05 11:43:16;;;;;;;9.50;4.45;;;;;;;;;;5036329;28;20099;-65
2022/03/05 11:45:49;;;;;;;8.48;4.25;;;;;;;;;;5048348;28;20040;-65
2022/03/05 11:48:24;;;;;;;9.05;3.95;;;;;;;;;;5053501;28;20392;-67
2022/03/05 11:50:52;;;;;;;10.90;3.88;;;;;;;;;;5052772;28;20025;-67
2022/03/05 11:53:18;;;;;;;10.15;4.65;;;;;;;;;;5052777;28;20032;-65
2022/03/05 11:55:45;;;;;;;10.10;4.38;;;;;;;;;;5053199;28;20029;-65
2022/03/05 11:58:15;;;;;;;9.07;4.30;;;;;;;;;;5053325;28;20024;-68
2022/03/05 12:00:41;;;;;;;8.18;4.30;;;;;;;;;;5039035;28;20032;-68
2022/03/05 12:03:07;;;;;;;9.35;4.10;;;;;;;;;;5051742;28;20017;-65
2022/03/05 12:05:33;;;;;;;9.32;4.13;;;;;;;;;;5045298;28;20026;-64
2022/03/05 12:08:00;;;;;;;10.35;4.78;;;;;;;;;;5042550;28;20035;-66
2022/03/05 12:10:26;;;;;;;7.72;4.32;;;;;;;;;;5047112;28;20021;-67
2022/03/05 12:12:54;;;;;;;7.82;4.00;;;;;;;;;;5052899;28;20036;-70
2022/03/05 12:15:28;;;;;;;6.75;3.92;;;;;;;;;;5048289;28;20025;-66
2022/03/05 12:17:55;;;;;;;8.77;4.13;;;;;;;;;;5042897;28;20024;-67
2022/03/05 12:20:27;;;;;;;7.40;3.90;;;;;;;;;;5052938;28;20021;-66
2022/03/05 12:22:58;;;;;;;9.30;4.93;;;;;;;;;;5052608;28;20104;-64
2022/03/05 12:25:25;;;;;;;9.88;4.50;;;;;;;;;;5049390;28;20302;-71
2022/03/05 12:27:51;;;;;;;12.88;4.25;;;;;;;;;;5051779;28;20032;-64
2022/03/05 12:30:19;;;;;;;13.10;4.68;;;;;;;;;;5051775;28;20376;-64
2022/03/05 12:32:47;;;;;;;18.42;5.00;;;;;;;;;;5051383;28;20035;-64
2022/03/05 12:35:14;;;;;;;15.88;4.70;;;;;;;;;;5052068;28;20086;-68
2022/03/05 12:37:40;;;;;;;19.27;4.50;;;;;;;;;;5051805;28;20041;-65
2022/03/05 12:40:06;;;;;;;12.50;4.43;;;;;;;;;;5048265;28;20021;-69
2022/03/05 12:42:51;;;;;;;9.68;4.15;;;;;;;;;;5049245;28;20451;-68
2022/03/05 12:45:17;;;;;;;14.30;4.43;;;;;;;;;;5036737;28;20047;-67
2022/03/05 12:47:44;;;;;;;9.43;4.13;;;;;;;;;;5046930;28;20052;-68
2022/03/05 12:50:20;;;;;;;15.45;4.18;;;;;;;;;;5047319;28;20037;-70
2022/03/05 12:53:04;;;;;;;15.52;4.28;;;;;;;;;;5047059;28;20593;-69
2022/03/05 12:55:33;;;;;;;12.18;4.22;;;;;;;;;;5045105;28;20110;-67
2022/03/05 12:58:13;;;;;;;8.90;4.10;;;;;;;;;;5045897;28;20680;-66
2022/03/05 13:00:40;;;;;;;12.65;4.97;;;;;;;;;;5050131;28;20108;-67
2022/03/05 13:03:07;;;;;;;8.32;3.85;;;;;;;;;;5051766;28;20025;-67
2022/03/05 13:05:33;;;;;;;10.65;4.07;;;;;;;;;;5048002;28;20924;-67
2022/03/05 13:07:59;;;;;;;13.13;3.92;;;;;;;;;;5048113;28;20102;-67
2022/03/05 13:10:25;;;;;;;14.18;4.35;;;;;;;;;;5048076;28;20102;-67
2022/03/05 13:12:55;;;;;;;11.35;4.15;;;;;;;;;;5048325;28;20052;-67
2022/03/05 13:15:22;;;;;;;12.85;3.53;;;;;;;;;;5061229;28;20017;-68
2022/03/05 13:17:48;;;;;;;17.98;3.92;;;;;;;;;;5048075;28;20029;-67
2022/03/05 13:20:16;;;;;;;7.72;3.72;;;;;;;;;;5048024;28;20049;-67
2022/03/05 13:22:43;;;;;;;11.70;4.25;;;;;;;;;;5048293;28;20032;-67
2022/03/05 13:25:09;;;;;;;15.10;4.30;;;;;;;;;;5044238;28;20113;-69
2022/03/05 13:27:36;;;;;;;15.32;4.38;;;;;;;;;;5039304;28;20083;-69
2022/03/05 13:30:12;;;;;;;15.55;3.80;;;;;;;;;;5046313;28;20496;-69
2022/03/05 13:32:42;;;;;;;9.50;4.00;;;;;;;;;;5045740;28;20041;-69
2022/03/05 13:35:08;;;;;;;11.35;4.07;;;;;;;;;;5047796;28;20685;-69
2022/03/05 13:37:38;;;;;;;12.43;3.80;;;;;;;;;;5051519;28;20044;-69
2022/03/05 13:40:05;;;;;;;11.32;3.90;;;;;;;;;;5052302;28;20025;-68
2022/03/05 13:42:35;;;;;;;8.80;3.75;;;;;;;;;;5050846;28;20013;-69
2022/03/05 13:45:02;;;;;;;8.35;3.60;;;;;;;;;;5044496;28;20503;-70
2022/03/05 13:47:28;;;;;;;9.18;4.32;;;;;;;;;;5050743;28;20083;-71
2022/03/05 13:50:01;;;;;;;8.88;3.60;;;;;;;;;;5051926;28;20108;-71
2022/03/05 13:52:30;;;;;;;9.38;4.00;;;;;;;;;;5055504;28;20091;-70
2022/03/05 13:55:05;;;;;;;13.23;3.63;;;;;;;;;;5054626;28;20021;-70
2022/03/05 13:57:32;;;;;;;10.90;3.58;;;;;;;;;;5054546;28;20086;-69
2022/03/05 14:00:14;;;;;;;9.00;3.47;;;;;;;;;;5055541;28;20460;-70
2022/03/05 14:02:41;;;;;;;14.43;3.80;;;;;;;;;;5053183;28;20051;-69
2022/03/05 14:05:12;;;;;;;12.43;3.55;;;;;;;;;;5053964;28;20029;-69
2022/03/05 14:07:47;;;;;;;11.10;3.58;;;;;;;;;;5051012;28;20108;-68
2022/03/05 14:10:14;;;;;;;11.00;3.72;;;;;;;;;;5036081;28;20048;-69
2022/03/05 14:12:44;;;;;;;7.68;3.10;;;;;;;;;;5055520;28;20033;-69
2022/03/05 14:15:10;;;;;;;15.23;4.22;;;;;;;;;;5055677;28;20021;-68
2022/03/05 14:17:37;;;;;;;6.90;3.50;;;;;;;;;;5055639;28;20426;-68
2022/03/05 14:20:03;;;;;;;8.07;2.72;;;;;;;;;;5054578;28;20029;-69
2022/03/05 14:22:34;;;;;;;8.68;3.40;;;;;;;;;;5055015;28;20025;-69
2022/03/05 14:25:00;;;;;;;13.27;4.03;;;;;;;;;;5055493;28;20025;-68
2022/03/05 14:27:26;;;;;;;9.60;3.80;;;;;;;;;;5054304;28;20452;-68
2022/03/05 14:29:52;;;;;;;8.23;4.05;;;;;;;;;;5054920;28;20029;-68
2022/03/05 14:32:18;;;;;;;10.70;3.45;;;;;;;;;;5054887;28;20021;-68
2022/03/05 14:34:44;;;;;;;9.35;3.20;;;;;;;;;;5044016;28;20030;-68